Time;durP1;ratioP1;P1;durP2;ratioP2;P2;SDS_P1;SDS_P2;PMS_P1;PMS_P2;Temp;Humidity;BMP_temperature;BMP_pressure;BME280_temperature;BME280_humidity;BME280_pressure;Samples;Min_cycle;Max_cycle;Signal;HPM_P1;HPM_P2
2022/02/08 00:00:19;;;;;;;;;;;;;;;;;;1030442;28;1094;-41
2022/02/08 00:00:50;;;;;;;;;;;;;;;;;;1028638;28;1425;-41
2022/02/08 00:01:22;;;;;;;;;;;;;;;;;;1030723;28;1213;-41
2022/02/08 00:02:12;;;;;;;;;;;;;;;;;;1030842;28;948;-41
2022/02/08 00:02:47;;;;;;;;;;;;;;;;;;1030783;28;966;-41
2022/02/08 00:03:19;;;;;;;;;;;;;;;;;;1030950;28;947;-41
2022/02/08 00:03:50;;;;;;;;;;;;;;;;;;1030892;28;895;-41
2022/02/08 00:04:20;;;;;;;;;;;;;;;;;;1030621;28;1401;-41
2022/02/08 00:04:50;;;;;;;;;;;;;;;;;;1032456;28;1244;-41
2022/02/08 00:05:22;;;;;;;;;;;;;;;;;;1031336;28;1287;-41
2022/02/08 00:06:40;;;;;;;;;;;;;;;;;;1032370;28;1267;-41
2022/02/08 00:06:47;;;;;;;;;;;;;;;;;;1024847;28;1363;-41
2022/02/08 00:07:17;;;;;;;;;;;;;;;;;;1030486;28;1169;-42
2022/02/08 00:07:51;;;;;;;;;;;;;;;;;;1030595;28;1999;-41
2022/02/08 00:08:22;;;;;;;;;;;;;;;;;;1030696;28;1037;-41
2022/02/08 00:08:52;;;;;;;;;;;;;;;;;;1030577;28;1173;-41
2022/02/08 00:09:24;;;;;;;;;;;;;;;;;;1030806;28;1104;-41
2022/02/08 00:09:54;;;;;;;;;;;;;;;;;;1027962;28;1067;-41
2022/02/08 00:10:29;;;;;;;;;;;;;;;;;;1030625;28;1087;-41
2022/02/08 00:10:59;;;;;;;;;;;;;;;;;;1030510;28;1181;-41
2022/02/08 00:11:30;;;;;;;;;;;;;;;;;;1030786;28;1137;-41
2022/02/08 00:12:00;;;;;;;;;;;;;;;;;;1030836;28;1138;-41
2022/02/08 00:12:31;;;;;;;;;;;;;;;;;;1030601;28;1079;-41
2022/02/08 00:13:01;;;;;;;;;;;;;;;;;;1030238;28;1146;-41
2022/02/08 00:13:34;;;;;;;;;;;;;;;;;;1030401;28;1749;-41
2022/02/08 00:14:04;;;;;;;;;;;;;;;;;;1030954;28;981;-42
2022/02/08 00:14:35;;;;;;;;;;;;;;;;;;1030857;28;882;-42
2022/02/08 00:15:05;;;;;;;;;;;;;;;;;;1030987;28;934;-42
2022/02/08 00:15:36;;;;;;;;;;;;;;;;;;1030726;28;972;-42
2022/02/08 00:16:06;;;;;;;;;;;;;;;;;;1031124;28;863;-42
2022/02/08 00:16:36;;;;;;;;;;;;;;;;;;1026392;28;1525;-42
2022/02/08 00:17:07;;;;;;;;;;;;;;;;;;1026624;28;895;-42
2022/02/08 00:17:38;;;;;;;;;;;;;;;;;;1026451;28;999;-43
2022/02/08 00:18:08;;;;;;;;;;;;;;;;;;1026552;28;836;-42
2022/02/08 00:18:38;;;;;;;;;;;;;;;;;;1030968;28;955;-42
2022/02/08 00:19:09;;;;;;;;;;;;;;;;;;1030757;28;910;-42
2022/02/08 00:19:39;;;;;;;;;;;;;;;;;;1030928;28;1627;-41
2022/02/08 00:20:10;;;;;;;;;;;;;;;;;;1030735;28;851;-42
2022/02/08 00:20:40;;;;;;;;;;;;;;;;;;1030889;28;1082;-42
2022/02/08 00:21:11;;;;;;;;;;;;;;;;;;1030630;28;1185;-42
2022/02/08 00:21:41;;;;;;;;;;;;;;;;;;1030675;28;1269;-42
2022/02/08 00:22:11;;;;;;;;;;;;;;;;;;1030744;28;1153;-42
2022/02/08 00:22:42;;;;;;;;;;;;;;;;;;1030860;28;953;-41
2022/02/08 00:23:12;;;;;;;;;;;;;;;;;;1030914;28;1209;-42
2022/02/08 00:23:42;;;;;;;;;;;;;;;;;;1030770;28;1038;-42
2022/02/08 00:24:13;;;;;;;;;;;;;;;;;;1030961;28;886;-41
2022/02/08 00:24:43;;;;;;;;;;;;;;;;;;1030872;28;980;-42
2022/02/08 00:25:13;;;;;;;;;;;;;;;;;;1031014;28;1352;-42
2022/02/08 00:25:44;;;;;;;;;;;;;;;;;;1030523;28;916;-42
2022/02/08 00:26:14;;;;;;;;;;;;;;;;;;1031095;28;955;-42
2022/02/08 00:26:44;;;;;;;;;;;;;;;;;;1030843;28;895;-42
2022/02/08 00:27:15;;;;;;;;;;;;;;;;;;1030956;28;768;-42
2022/02/08 00:27:45;;;;;;;;;;;;;;;;;;1030766;28;1967;-41
2022/02/08 00:28:17;;;;;;;;;;;;;;;;;;1030737;28;938;-42
2022/02/08 00:28:47;;;;;;;;;;;;;;;;;;1030761;28;1217;-42
2022/02/08 00:29:18;;;;;;;;;;;;;;;;;;1026463;28;906;-42
2022/02/08 00:29:48;;;;;;;;;;;;;;;;;;1022494;29;1710;-42
2022/02/08 00:30:18;;;;;;;;;;;;;;;;;;1018477;29;1376;-42
2022/02/08 00:30:49;;;;;;;;;;;;;;;;;;1018353;29;976;-42
2022/02/08 00:31:19;;;;;;;;;;;;;;;;;;1022518;29;927;-42
2022/02/08 00:31:50;;;;;;;;;;;;;;;;;;1026494;28;1578;-42
2022/02/08 00:32:20;;;;;;;;;;;;;;;;;;1030444;28;929;-42
2022/02/08 00:32:51;;;;;;;;;;;;;;;;;;1030404;28;824;-42
2022/02/08 00:33:21;;;;;;;;;;;;;;;;;;1030650;28;1033;-42
2022/02/08 00:33:51;;;;;;;;;;;;;;;;;;1030735;28;879;-42
2022/02/08 00:34:22;;;;;;;;;;;;;;;;;;1030912;28;863;-42
2022/02/08 00:34:53;;;;;;;;;;;;;;;;;;1030647;28;898;-41
2022/02/08 00:35:23;;;;;;;;;;;;;;;;;;1031005;28;953;-41
2022/02/08 00:35:54;;;;;;;;;;;;;;;;;;1030598;28;985;-42
2022/02/08 00:36:25;;;;;;;;;;;;;;;;;;1031021;28;796;-41
2022/02/08 00:36:56;;;;;;;;;;;;;;;;;;1030689;28;1006;-41
2022/02/08 00:37:26;;;;;;;;;;;;;;;;;;1030886;28;870;-41
2022/02/08 00:37:56;;;;;;;;;;;;;;;;;;1030789;28;1249;-41
2022/02/08 00:38:27;;;;;;;;;;;;;;;;;;1030827;28;897;-42
2022/02/08 00:38:58;;;;;;;;;;;;;;;;;;1030808;28;1197;-41
2022/02/08 00:39:33;;;;;;;;;;;;;;;;;;1030776;28;950;-41
2022/02/08 00:40:03;;;;;;;;;;;;;;;;;;1030853;28;940;-41
2022/02/08 00:40:33;;;;;;;;;;;;;;;;;;1030437;28;1001;-41
2022/02/08 00:41:04;;;;;;;;;;;;;;;;;;1031002;28;961;-41
2022/02/08 00:41:36;;;;;;;;;;;;;;;;;;1030691;28;960;-41
2022/02/08 00:42:09;;;;;;;;;;;;;;;;;;1030833;28;863;-41
2022/02/08 00:42:40;;;;;;;;;;;;;;;;;;1030909;28;923;-41
2022/02/08 00:43:10;;;;;;;;;;;;;;;;;;1030646;28;780;-41
2022/02/08 00:44:04;;;;;;;;;;;;;;;;;;1031043;28;1005;-41
2022/02/08 00:45:07;;;;;;;;;;;;;;;;;;1026306;28;1606;-41
2022/02/08 00:46:08;;;;;;;;;;;;;;;;;;1026302;28;783;-41
2022/02/08 00:47:20;;;;;;;;;;;;;;;;;;1030897;28;907;-41
2022/02/08 00:47:40;;;;;;;;;;;;;;;;;;1024431;28;1907;-41
2022/02/08 00:48:19;;;;;;;;;;;;;;;;;;1026431;28;981;-41
2022/02/08 00:49:01;;;;;;;;;;;;;;;;;;1026247;28;1411;-42
2022/02/08 00:49:38;;;;;;;;;;;;;;;;;;1029681;28;891;-41
2022/02/08 00:50:10;;;;;;;;;;;;;;;;;;1026363;28;1233;-41
2022/02/08 00:50:48;;;;;;;;;;;;;;;;;;1026248;28;966;-42
2022/02/08 00:51:18;;;;;;;;;;;;;;;;;;1026405;28;1521;-41
2022/02/08 00:51:57;;;;;;;;;;;;;;;;;;1027649;28;985;-41
2022/02/08 00:52:27;;;;;;;;;;;;;;;;;;1030343;28;1154;-41
2022/02/08 00:52:58;;;;;;;;;;;;;;;;;;1029411;28;993;-41
2022/02/08 00:53:29;;;;;;;;;;;;;;;;;;1026167;28;1185;-41
2022/02/08 00:54:00;;;;;;;;;;;;;;;;;;1026687;28;839;-41
2022/02/08 00:54:30;;;;;;;;;;;;;;;;;;1026355;28;1404;-42
2022/02/08 00:55:01;;;;;;;;;;;;;;;;;;1026417;28;918;-41
2022/02/08 00:55:31;;;;;;;;;;;;;;;;;;1026545;28;958;-41
2022/02/08 00:56:02;;;;;;;;;;;;;;;;;;1026207;28;1145;-41
2022/02/08 00:56:34;;;;;;;;;;;;;;;;;;1026499;28;1197;-41
2022/02/08 00:57:04;;;;;;;;;;;;;;;;;;1026338;28;942;-41
2022/02/08 00:57:35;;;;;;;;;;;;;;;;;;1022387;29;1470;-41
2022/02/08 00:58:05;;;;;;;;;;;;;;;;;;1022361;28;942;-42
2022/02/08 00:58:35;;;;;;;;;;;;;;;;;;1022518;29;1273;-41
2022/02/08 00:59:07;;;;;;;;;;;;;;;;;;1022236;29;1014;-41
2022/02/08 00:59:38;;;;;;;;;;;;;;;;;;1026583;28;881;-41
2022/02/08 01:00:09;;;;;;;;;;;;;;;;;;1026567;28;1046;-42
2022/02/08 01:00:40;;;;;;;;;;;;;;;;;;1030392;28;1329;-41
2022/02/08 01:01:10;;;;;;;;;;;;;;;;;;1030305;28;1185;-41
2022/02/08 01:01:41;;;;;;;;;;;;;;;;;;1030368;28;946;-41
2022/02/08 01:02:11;;;;;;;;;;;;;;;;;;1030379;28;1038;-41
2022/02/08 01:02:42;;;;;;;;;;;;;;;;;;1026309;28;850;-42
2022/02/08 01:03:12;;;;;;;;;;;;;;;;;;1022495;29;1225;-41
2022/02/08 01:03:43;;;;;;;;;;;;;;;;;;1022378;29;1195;-41
2022/02/08 01:04:14;;;;;;;;;;;;;;;;;;1026191;28;1441;-41
2022/02/08 01:04:52;;;;;;;;;;;;;;;;;;1022761;28;976;-41
2022/02/08 01:05:22;;;;;;;;;;;;;;;;;;1026285;28;1104;-41
2022/02/08 01:06:03;;;;;;;;;;;;;;;;;;1025330;28;1150;-41
2022/02/08 01:06:34;;;;;;;;;;;;;;;;;;1024970;28;1240;-41
2022/02/08 01:07:06;;;;;;;;;;;;;;;;;;1022434;29;1264;-41
2022/02/08 01:07:37;;;;;;;;;;;;;;;;;;1026367;28;1972;-41
2022/02/08 01:08:09;;;;;;;;;;;;;;;;;;1022086;29;871;-41
2022/02/08 01:08:40;;;;;;;;;;;;;;;;;;1023161;28;1181;-41
2022/02/08 01:09:17;;;;;;;;;;;;;;;;;;1025798;28;987;-42
2022/02/08 01:09:54;;;;;;;;;;;;;;;;;;1022455;29;931;-41
2022/02/08 01:10:29;;;;;;;;;;;;;;;;;;1024201;28;1832;-40
2022/02/08 01:11:00;;;;;;;;;;;;;;;;;;1022260;29;1162;-41
2022/02/08 01:11:30;;;;;;;;;;;;;;;;;;1022599;29;1173;-41
2022/02/08 01:12:01;;;;;;;;;;;;;;;;;;1022136;29;1933;-41
2022/02/08 01:12:33;;;;;;;;;;;;;;;;;;1018582;29;677;-41
2022/02/08 01:13:04;;;;;;;;;;;;;;;;;;1022435;29;879;-42
2022/02/08 01:13:37;;;;;;;;;;;;;;;;;;1022261;29;1266;-41
2022/02/08 01:14:07;;;;;;;;;;;;;;;;;;1022960;28;1135;-41
2022/02/08 01:14:40;;;;;;;;;;;;;;;;;;1030187;28;1907;-41
2022/02/08 01:15:13;;;;;;;;;;;;;;;;;;1026343;28;1434;-42
2022/02/08 01:15:43;;;;;;;;;;;;;;;;;;1026399;28;900;-42
2022/02/08 01:16:14;;;;;;;;;;;;;;;;;;1025530;28;943;-41
2022/02/08 01:16:45;;;;;;;;;;;;;;;;;;1022869;28;1014;-42
2022/02/08 01:17:15;;;;;;;;;;;;;;;;;;1026597;28;934;-41
2022/02/08 01:17:53;;;;;;;;;;;;;;;;;;1022437;29;1346;-41
2022/02/08 01:18:24;;;;;;;;;;;;;;;;;;1022330;29;942;-42
2022/02/08 01:18:56;;;;;;;;;;;;;;;;;;1022417;29;1234;-41
2022/02/08 01:19:27;;;;;;;;;;;;;;;;;;1022210;29;946;-42
2022/02/08 01:20:05;;;;;;;;;;;;;;;;;;1022396;29;1347;-41
2022/02/08 01:20:37;;;;;;;;;;;;;;;;;;1026172;28;978;-41
2022/02/08 01:21:08;;;;;;;;;;;;;;;;;;1022135;29;1609;-41
2022/02/08 01:21:38;;;;;;;;;;;;;;;;;;1024008;28;1106;-41
2022/02/08 01:22:09;;;;;;;;;;;;;;;;;;1029950;28;1001;-41
2022/02/08 01:22:41;;;;;;;;;;;;;;;;;;1030309;28;891;-41
2022/02/08 01:23:13;;;;;;;;;;;;;;;;;;1034392;28;887;-41
2022/02/08 01:23:44;;;;;;;;;;;;;;;;;;1034459;28;858;-40
2022/02/08 01:24:14;;;;;;;;;;;;;;;;;;1033312;28;866;-41
2022/02/08 01:24:46;;;;;;;;;;;;;;;;;;1026696;28;907;-41
2022/02/08 01:25:26;;;;;;;;;;;;;;;;;;1027207;28;985;-41
2022/02/08 01:26:00;;;;;;;;;;;;;;;;;;1027654;28;950;-41
2022/02/08 01:26:32;;;;;;;;;;;;;;;;;;1027292;28;966;-41
2022/02/08 01:27:08;;;;;;;;;;;;;;;;;;1027739;28;939;-42
2022/02/08 01:27:46;;;;;;;;;;;;;;;;;;1027384;28;1968;-43
2022/02/08 01:28:30;;;;;;;;;;;;;;;;;;1031175;28;843;-41
2022/02/08 01:29:17;;;;;;;;;;;;;;;;;;1035235;28;1049;-41
2022/02/08 01:30:30;;;;;;;;;;;;;;;;;;1031564;28;886;-41
2022/02/08 01:31:03;;;;;;;;;;;;;;;;;;1031641;28;1002;-41
2022/02/08 01:31:38;;;;;;;;;;;;;;;;;;1031468;28;993;-41
2022/02/08 01:32:36;;;;;;;;;;;;;;;;;;1035078;28;921;-41
2022/02/08 01:34:08;;;;;;;;;;;;;;;;;;1035300;28;1697;-41
2022/02/08 01:34:41;;;;;;;;;;;;;;;;;;1031042;28;1297;-41
2022/02/08 01:36:22;;;;;;;;;;;;;;;;;;1027066;28;942;-41
2022/02/08 01:37:58;;;;;;;;;;;;;;;;;;1022643;29;1395;-41
2022/02/08 01:38:31;;;;;;;;;;;;;;;;;;1018682;29;1468;-42
2022/02/08 01:40:00;;;;;;;;;;;;;;;;;;1024974;28;1193;-41
2022/02/08 01:40:08;;;;;;;;;;;;;;;;;;1017781;29;1178;-41
2022/02/08 01:42:25;;;;;;;;;;;;;;;;;;1035116;28;1294;-41
2022/02/08 01:44:10;;;;;;;;;;;;;;;;;;1034469;28;1081;-42
2022/02/08 01:45:35;;;;;;;;;;;;;;;;;;1031594;28;1080;-42
2022/02/08 01:46:26;;;;;;;;;;;;;;;;;;1028043;28;1514;-42
2022/02/08 01:46:50;;;;;;;;;;;;;;;;;;1024861;28;1387;-42
2022/02/08 01:47:28;;;;;;;;;;;;;;;;;;1028870;28;1539;-42
2022/02/08 01:48:09;;;;;;;;;;;;;;;;;;1030738;28;1977;-42
2022/02/08 01:48:51;;;;;;;;;;;;;;;;;;1031127;28;800;-42
2022/02/08 01:50:11;;;;;;;;;;;;;;;;;;1026842;28;1464;-41
2022/02/08 01:50:42;;;;;;;;;;;;;;;;;;1026854;28;820;-41
2022/02/08 01:51:13;;;;;;;;;;;;;;;;;;1023096;29;1170;-41
2022/02/08 01:51:44;;;;;;;;;;;;;;;;;;1021057;29;1101;-41
2022/02/08 01:52:14;;;;;;;;;;;;;;;;;;1023307;28;973;-41
2022/02/08 01:52:45;;;;;;;;;;;;;;;;;;1023005;29;1592;-42
2022/02/08 01:53:21;;;;;;;;;;;;;;;;;;1019773;29;1236;-41
2022/02/08 01:53:51;;;;;;;;;;;;;;;;;;1023963;28;904;-42
2022/02/08 01:54:22;;;;;;;;;;;;;;;;;;1027791;28;792;-41
2022/02/08 01:54:54;;;;;;;;;;;;;;;;;;1027291;28;1311;-42
2022/02/08 01:55:25;;;;;;;;;;;;;;;;;;1030908;28;1156;-42
2022/02/08 01:55:56;;;;;;;;;;;;;;;;;;1027074;28;1358;-42
2022/02/08 01:56:28;;;;;;;;;;;;;;;;;;1027551;28;985;-42
2022/02/08 01:56:59;;;;;;;;;;;;;;;;;;1026944;28;1469;-42
2022/02/08 01:57:29;;;;;;;;;;;;;;;;;;1023309;28;1197;-42
2022/02/08 01:58:01;;;;;;;;;;;;;;;;;;1023052;28;1161;-42
2022/02/08 01:58:33;;;;;;;;;;;;;;;;;;1023217;28;1921;-41
2022/02/08 01:59:15;;;;;;;;;;;;;;;;;;1024935;28;1277;-43
2022/02/08 01:59:47;;;;;;;;;;;;;;;;;;1024915;28;1261;-41
2022/02/08 02:00:18;;;;;;;;;;;;;;;;;;1023110;28;2369;-41
2022/02/08 02:00:51;;;;;;;;;;;;;;;;;;1023556;28;1317;-41
2022/02/08 02:01:22;;;;;;;;;;;;;;;;;;1027528;28;1073;-41
2022/02/08 02:01:52;;;;;;;;;;;;;;;;;;1030976;28;998;-41
2022/02/08 02:02:23;;;;;;;;;;;;;;;;;;1027080;28;1178;-41
2022/02/08 02:02:53;;;;;;;;;;;;;;;;;;1026883;28;1197;-41
2022/02/08 02:03:29;;;;;;;;;;;;;;;;;;1022972;29;1857;-41
2022/02/08 02:03:59;;;;;;;;;;;;;;;;;;1023803;28;959;-41
2022/02/08 02:04:30;;;;;;;;;;;;;;;;;;1027704;28;935;-41
2022/02/08 02:05:01;;;;;;;;;;;;;;;;;;1030866;28;1602;-41
2022/02/08 02:05:31;;;;;;;;;;;;;;;;;;1031042;28;1229;-41
2022/02/08 02:06:02;;;;;;;;;;;;;;;;;;1030890;28;1266;-41
2022/02/08 02:06:33;;;;;;;;;;;;;;;;;;1030859;28;871;-41
2022/02/08 02:07:05;;;;;;;;;;;;;;;;;;1031017;28;851;-41
2022/02/08 02:07:36;;;;;;;;;;;;;;;;;;1031298;28;1177;-41
2022/02/08 02:08:08;;;;;;;;;;;;;;;;;;1030859;28;1173;-41
2022/02/08 02:08:41;;;;;;;;;;;;;;;;;;1030911;28;1272;-41
2022/02/08 02:09:13;;;;;;;;;;;;;;;;;;1030988;28;862;-41
2022/02/08 02:09:45;;;;;;;;;;;;;;;;;;1026952;28;1471;-41
2022/02/08 02:10:20;;;;;;;;;;;;;;;;;;1026642;28;1348;-41
2022/02/08 02:10:50;;;;;;;;;;;;;;;;;;1026954;28;903;-42
2022/02/08 02:11:21;;;;;;;;;;;;;;;;;;1027752;28;1296;-42
2022/02/08 02:11:55;;;;;;;;;;;;;;;;;;1030935;28;918;-42
2022/02/08 02:12:26;;;;;;;;;;;;;;;;;;1027044;28;1212;-42
2022/02/08 02:12:58;;;;;;;;;;;;;;;;;;1027414;28;891;-41
2022/02/08 02:14:09;;;;;;;;;;;;;;;;;;1024763;28;1091;-42
2022/02/08 02:14:40;;;;;;;;;;;;;;;;;;1026907;28;926;-42
2022/02/08 02:15:11;;;;;;;;;;;;;;;;;;1027925;28;1189;-42
2022/02/08 02:15:43;;;;;;;;;;;;;;;;;;1030792;28;792;-41
2022/02/08 02:16:19;;;;;;;;;;;;;;;;;;1031231;28;1141;-42
2022/02/08 02:17:20;;;;;;;;;;;;;;;;;;1034925;28;803;-42
2022/02/08 02:17:51;;;;;;;;;;;;;;;;;;1034419;28;1000;-41
2022/02/08 02:18:21;;;;;;;;;;;;;;;;;;1034878;28;1378;-41
2022/02/08 02:18:52;;;;;;;;;;;;;;;;;;1030900;28;1385;-42
2022/02/08 02:19:29;;;;;;;;;;;;;;;;;;1026623;28;1219;-41
2022/02/08 02:20:00;;;;;;;;;;;;;;;;;;1026864;28;1443;-42
2022/02/08 02:20:33;;;;;;;;;;;;;;;;;;1027952;28;1173;-42
2022/02/08 02:21:04;;;;;;;;;;;;;;;;;;1027478;28;1149;-42
2022/02/08 02:21:34;;;;;;;;;;;;;;;;;;1031028;28;1117;-42
2022/02/08 02:22:06;;;;;;;;;;;;;;;;;;1026379;28;1266;-42
2022/02/08 02:22:37;;;;;;;;;;;;;;;;;;1027173;28;997;-42
2022/02/08 02:23:07;;;;;;;;;;;;;;;;;;1026531;28;1185;-42
2022/02/08 02:23:38;;;;;;;;;;;;;;;;;;1023038;28;1193;-42
2022/02/08 02:24:10;;;;;;;;;;;;;;;;;;1026759;28;839;-42
2022/02/08 02:24:40;;;;;;;;;;;;;;;;;;1026950;28;954;-42
2022/02/08 02:25:32;;;;;;;;;;;;;;;;;;1030793;28;970;-42
2022/02/08 02:26:02;;;;;;;;;;;;;;;;;;1031068;28;879;-42
2022/02/08 02:26:32;;;;;;;;;;;;;;;;;;1031149;28;783;-42
2022/02/08 02:27:04;;;;;;;;;;;;;;;;;;1034819;28;1570;-42
2022/02/08 02:27:35;;;;;;;;;;;;;;;;;;1034643;28;950;-42
2022/02/08 02:28:05;;;;;;;;;;;;;;;;;;1034776;28;1910;-42
2022/02/08 02:28:37;;;;;;;;;;;;;;;;;;1030616;28;1542;-42
2022/02/08 02:29:11;;;;;;;;;;;;;;;;;;1026627;28;1352;-42
2022/02/08 02:29:41;;;;;;;;;;;;;;;;;;1026461;28;1394;-42
2022/02/08 02:30:12;;;;;;;;;;;;;;;;;;1023293;28;1524;-42
2022/02/08 02:30:43;;;;;;;;;;;;;;;;;;1022527;29;1312;-42
2022/02/08 02:31:16;;;;;;;;;;;;;;;;;;1018815;29;1230;-42
2022/02/08 02:31:46;;;;;;;;;;;;;;;;;;1022866;28;969;-42
2022/02/08 02:32:17;;;;;;;;;;;;;;;;;;1023154;28;1371;-42
2022/02/08 02:32:51;;;;;;;;;;;;;;;;;;1023589;28;1296;-42
2022/02/08 02:33:22;;;;;;;;;;;;;;;;;;1026578;28;1088;-42
2022/02/08 02:33:52;;;;;;;;;;;;;;;;;;1027353;28;915;-42
2022/02/08 02:34:24;;;;;;;;;;;;;;;;;;1026663;28;1310;-43
2022/02/08 02:34:57;;;;;;;;;;;;;;;;;;1030614;28;1184;-42
2022/02/08 02:35:28;;;;;;;;;;;;;;;;;;1026696;28;1284;-41
2022/02/08 02:35:59;;;;;;;;;;;;;;;;;;1022726;28;1410;-42
2022/02/08 02:36:29;;;;;;;;;;;;;;;;;;1022742;28;1015;-42
2022/02/08 02:37:02;;;;;;;;;;;;;;;;;;1018775;29;1048;-42
2022/02/08 02:37:34;;;;;;;;;;;;;;;;;;1022830;28;1196;-42
2022/02/08 02:38:05;;;;;;;;;;;;;;;;;;1023168;28;876;-42
2022/02/08 02:38:38;;;;;;;;;;;;;;;;;;1023450;28;1536;-42
2022/02/08 02:39:08;;;;;;;;;;;;;;;;;;1023107;28;980;-42
2022/02/08 02:39:39;;;;;;;;;;;;;;;;;;1026535;28;990;-42
2022/02/08 02:40:14;;;;;;;;;;;;;;;;;;1030639;28;1193;-42
2022/02/08 02:40:46;;;;;;;;;;;;;;;;;;1027245;28;2308;-42
2022/02/08 02:41:21;;;;;;;;;;;;;;;;;;1026614;28;1208;-42
2022/02/08 02:41:53;;;;;;;;;;;;;;;;;;1026655;28;1185;-42
2022/02/08 02:42:26;;;;;;;;;;;;;;;;;;1027455;28;843;-42
2022/02/08 02:42:57;;;;;;;;;;;;;;;;;;1027333;28;1490;-41
2022/02/08 02:43:28;;;;;;;;;;;;;;;;;;1030103;28;1312;-43
2022/02/08 02:44:02;;;;;;;;;;;;;;;;;;1030552;28;1514;-42
2022/02/08 02:44:32;;;;;;;;;;;;;;;;;;1027256;28;953;-42
2022/02/08 02:45:05;;;;;;;;;;;;;;;;;;1026448;28;1479;-42
2022/02/08 02:45:35;;;;;;;;;;;;;;;;;;1026798;28;1217;-42
2022/02/08 02:46:06;;;;;;;;;;;;;;;;;;1026846;28;1339;-42
2022/02/08 02:46:37;;;;;;;;;;;;;;;;;;1026998;28;1302;-42
2022/02/08 02:47:08;;;;;;;;;;;;;;;;;;1026461;28;1205;-42
2022/02/08 02:47:38;;;;;;;;;;;;;;;;;;1026793;28;1891;-42
2022/02/08 02:48:11;;;;;;;;;;;;;;;;;;1026726;28;1318;-40
2022/02/08 02:48:50;;;;;;;;;;;;;;;;;;1032012;28;1186;-40
2022/02/08 02:49:25;;;;;;;;;;;;;;;;;;1030440;28;1292;-39
2022/02/08 02:49:55;;;;;;;;;;;;;;;;;;1030498;28;1258;-40
2022/02/08 02:50:26;;;;;;;;;;;;;;;;;;1030748;28;772;-40
2022/02/08 02:50:56;;;;;;;;;;;;;;;;;;1030436;28;1312;-39
2022/02/08 02:51:39;;;;;;;;;;;;;;;;;;1030644;28;851;-39
2022/02/08 02:52:09;;;;;;;;;;;;;;;;;;1026651;28;1412;-39
2022/02/08 02:52:45;;;;;;;;;;;;;;;;;;1026437;28;1331;-40
2022/02/08 02:53:16;;;;;;;;;;;;;;;;;;1026520;28;1568;-39
2022/02/08 02:53:46;;;;;;;;;;;;;;;;;;1027375;28;884;-40
2022/02/08 02:54:20;;;;;;;;;;;;;;;;;;1030543;28;1232;-40
2022/02/08 02:54:56;;;;;;;;;;;;;;;;;;1028976;28;1186;-41
2022/02/08 02:55:32;;;;;;;;;;;;;;;;;;1034574;28;1130;-40
2022/02/08 02:56:02;;;;;;;;;;;;;;;;;;1032950;28;938;-41
2022/02/08 02:56:33;;;;;;;;;;;;;;;;;;1027295;28;1326;-41
2022/02/08 02:57:03;;;;;;;;;;;;;;;;;;1027128;28;1218;-41
2022/02/08 02:57:35;;;;;;;;;;;;;;;;;;1029072;28;1553;-41
2022/02/08 02:58:07;;;;;;;;;;;;;;;;;;1026145;28;1313;-41
2022/02/08 02:58:39;;;;;;;;;;;;;;;;;;1027034;28;1211;-41
2022/02/08 02:59:10;;;;;;;;;;;;;;;;;;1026441;28;1981;-41
2022/02/08 02:59:43;;;;;;;;;;;;;;;;;;1026874;28;1056;-41
2022/02/08 03:00:26;;;;;;;;;;;;;;;;;;1031159;28;982;-43
2022/02/08 03:02:54;;;;;;;;;;;;;;;;;;1027466;28;1428;-41
2022/02/08 03:04:40;;;;;;;;;;;;;;;;;;1018204;29;1323;-41
2022/02/08 03:05:26;;;;;;;;;;;;;;;;;;1026442;28;1293;-41
2022/02/08 03:17:34;;;;;;;;;;;;;;;;;;1018326;29;1039;-41
2022/02/08 03:18:38;;;;;;;;;;;;;;;;;;1034582;28;1319;-41
2022/02/08 03:19:09;;;;;;;;;;;;;;;;;;1030469;28;1511;-42
2022/02/08 03:19:40;;;;;;;;;;;;;;;;;;1026419;28;1110;-41
2022/02/08 03:20:10;;;;;;;;;;;;;;;;;;1022387;29;1305;-42
2022/02/08 03:20:43;;;;;;;;;;;;;;;;;;1026380;28;1186;-41
2022/02/08 03:21:17;;;;;;;;;;;;;;;;;;1026472;28;1448;-41
2022/02/08 03:21:48;;;;;;;;;;;;;;;;;;986274;28;1116642;-41
2022/02/08 03:22:19;;;;;;;;;;;;;;;;;;1018649;29;1435;-41
2022/02/08 03:22:49;;;;;;;;;;;;;;;;;;1018811;29;827;-41
2022/02/08 03:23:20;;;;;;;;;;;;;;;;;;1018751;29;1154;-42
2022/02/08 03:23:55;;;;;;;;;;;;;;;;;;1015433;29;1166;-41
2022/02/08 03:24:27;;;;;;;;;;;;;;;;;;1014638;29;1206;-42
2022/02/08 03:24:59;;;;;;;;;;;;;;;;;;1015876;29;1532;-41
2022/02/08 03:25:32;;;;;;;;;;;;;;;;;;1015391;29;1206;-41
2022/02/08 03:26:10;;;;;;;;;;;;;;;;;;1016485;29;1610;-41
2022/02/08 03:26:46;;;;;;;;;;;;;;;;;;1018562;29;1501;-41
2022/02/08 03:27:17;;;;;;;;;;;;;;;;;;1020632;29;1147;-41
2022/02/08 03:27:48;;;;;;;;;;;;;;;;;;1022628;29;1911;-41
2022/02/08 03:28:21;;;;;;;;;;;;;;;;;;1022437;29;832;-41
2022/02/08 03:28:51;;;;;;;;;;;;;;;;;;1018273;29;1315;-40
2022/02/08 03:29:28;;;;;;;;;;;;;;;;;;1014515;29;1207;-42
2022/02/08 03:29:59;;;;;;;;;;;;;;;;;;1015870;29;1241;-41
2022/02/08 03:30:30;;;;;;;;;;;;;;;;;;1022439;29;1889;-41
2022/02/08 03:31:00;;;;;;;;;;;;;;;;;;1022618;29;1314;-41
2022/02/08 03:31:34;;;;;;;;;;;;;;;;;;1022799;29;885;-41
2022/02/08 03:32:05;;;;;;;;;;;;;;;;;;1021846;29;1328;-42
2022/02/08 03:32:35;;;;;;;;;;;;;;;;;;1014813;29;1290;-42
2022/02/08 03:33:08;;;;;;;;;;;;;;;;;;1014642;29;1305;-41
2022/02/08 03:33:45;;;;;;;;;;;;;;;;;;1019364;29;1246;-41
2022/02/08 03:34:16;;;;;;;;;;;;;;;;;;1018669;29;1329;-42
2022/02/08 03:34:49;;;;;;;;;;;;;;;;;;1018592;29;1493;-41
2022/02/08 03:35:20;;;;;;;;;;;;;;;;;;1013750;29;892;-41
2022/02/08 03:35:55;;;;;;;;;;;;;;;;;;1011643;29;1321;-41
2022/02/08 03:36:26;;;;;;;;;;;;;;;;;;1018566;29;1422;-41
2022/02/08 03:37:01;;;;;;;;;;;;;;;;;;1019760;29;1337;-42
2022/02/08 03:37:33;;;;;;;;;;;;;;;;;;1018743;29;1311;-41
2022/02/08 03:38:06;;;;;;;;;;;;;;;;;;1017862;29;871;-41
2022/02/08 03:38:44;;;;;;;;;;;;;;;;;;1019523;29;1360;-42
2022/02/08 03:39:24;;;;;;;;;;;;;;;;;;1020421;29;1318;-42
2022/02/08 03:40:14;;;;;;;;;;;;;;;;;;1018638;29;1292;-42
2022/02/08 03:40:50;;;;;;;;;;;;;;;;;;1014610;29;840;-41
2022/02/08 03:41:23;;;;;;;;;;;;;;;;;;1022520;29;1229;-41
2022/02/08 03:42:04;;;;;;;;;;;;;;;;;;1024787;28;1194;-42
2022/02/08 03:42:45;;;;;;;;;;;;;;;;;;1022573;29;856;-42
2022/02/08 03:43:38;;;;;;;;;;;;;;;;;;1015509;29;916;-41
2022/02/08 03:44:15;;;;;;;;;;;;;;;;;;1015077;29;868;-42
2022/02/08 03:44:49;;;;;;;;;;;;;;;;;;1014818;29;1178;-41
2022/02/08 03:45:20;;;;;;;;;;;;;;;;;;1014575;29;1235;-41
2022/02/08 03:45:53;;;;;;;;;;;;;;;;;;1014745;29;1329;-42
2022/02/08 03:46:29;;;;;;;;;;;;;;;;;;1018498;29;934;-44
2022/02/08 03:47:05;;;;;;;;;;;;;;;;;;1019796;29;1600;-42
2022/02/08 03:47:37;;;;;;;;;;;;;;;;;;1018263;29;1045;-41
2022/02/08 03:48:10;;;;;;;;;;;;;;;;;;1012600;29;1970;-41
2022/02/08 03:48:43;;;;;;;;;;;;;;;;;;1012009;29;1666;-42
2022/02/08 03:49:13;;;;;;;;;;;;;;;;;;1018669;29;1142;-41
2022/02/08 03:49:44;;;;;;;;;;;;;;;;;;1015172;29;1187;-41
2022/02/08 03:50:15;;;;;;;;;;;;;;;;;;1019045;29;1470;-42
2022/02/08 03:50:51;;;;;;;;;;;;;;;;;;1022345;29;780;-42
2022/02/08 03:51:24;;;;;;;;;;;;;;;;;;1019583;29;984;-42
2022/02/08 03:52:05;;;;;;;;;;;;;;;;;;1018523;29;1260;-42
2022/02/08 03:52:38;;;;;;;;;;;;;;;;;;1018795;29;847;-42
2022/02/08 03:53:08;;;;;;;;;;;;;;;;;;1018606;29;1976;-41
2022/02/08 03:53:43;;;;;;;;;;;;;;;;;;1019240;29;855;-42
2022/02/08 03:54:14;;;;;;;;;;;;;;;;;;1018811;29;1647;-41
2022/02/08 03:54:44;;;;;;;;;;;;;;;;;;1014517;29;1242;-41
2022/02/08 03:55:15;;;;;;;;;;;;;;;;;;1018765;29;901;-42
2022/02/08 03:55:46;;;;;;;;;;;;;;;;;;1014552;29;1881;-41
2022/02/08 03:56:20;;;;;;;;;;;;;;;;;;1014740;29;1110;-41
2022/02/08 03:56:52;;;;;;;;;;;;;;;;;;1014625;29;1214;-41
2022/02/08 03:57:25;;;;;;;;;;;;;;;;;;1019352;29;1196;-41
2022/02/08 03:57:57;;;;;;;;;;;;;;;;;;1018585;29;1209;-42
2022/02/08 03:58:29;;;;;;;;;;;;;;;;;;1018538;29;1210;-42
2022/02/08 03:59:01;;;;;;;;;;;;;;;;;;1017737;29;1217;-41
2022/02/08 03:59:36;;;;;;;;;;;;;;;;;;1015439;29;1916;-43
2022/02/08 04:00:07;;;;;;;;;;;;;;;;;;1022389;29;1447;-42
2022/02/08 04:01:04;;;;;;;;;;;;;;;;;;1022582;29;899;-42
2022/02/08 04:02:40;;;;;;;;;;;;;;;;;;1023010;29;956;-41
2022/02/08 04:03:11;;;;;;;;;;;;;;;;;;1024719;28;1095;-40
2022/02/08 04:03:53;;;;;;;;;;;;;;;;;;1026936;28;928;-41
2022/02/08 04:05:49;;;;;;;;;;;;;;;;;;1026927;28;1249;-42
2022/02/08 04:06:19;;;;;;;;;;;;;;;;;;1026842;28;944;-41
2022/02/08 04:06:53;;;;;;;;;;;;;;;;;;1026940;28;856;-42
2022/02/08 04:07:41;;;;;;;;;;;;;;;;;;1026912;28;910;-41
2022/02/08 04:08:14;;;;;;;;;;;;;;;;;;1026894;28;824;-41
2022/02/08 04:08:45;;;;;;;;;;;;;;;;;;1026817;28;878;-41
2022/02/08 04:09:17;;;;;;;;;;;;;;;;;;1026989;28;995;-41
2022/02/08 04:09:49;;;;;;;;;;;;;;;;;;1026784;28;922;-41
2022/02/08 04:10:23;;;;;;;;;;;;;;;;;;1026814;28;838;-41
2022/02/08 04:10:55;;;;;;;;;;;;;;;;;;1026897;28;922;-41
2022/02/08 04:11:26;;;;;;;;;;;;;;;;;;1027014;28;887;-41
2022/02/08 04:12:01;;;;;;;;;;;;;;;;;;1026861;28;1033;-41
2022/02/08 04:12:55;;;;;;;;;;;;;;;;;;1026896;28;676;-41
2022/02/08 04:13:32;;;;;;;;;;;;;;;;;;1026665;28;670;-41
2022/02/08 04:14:20;;;;;;;;;;;;;;;;;;1027027;28;1123;-41
2022/02/08 04:15:03;;;;;;;;;;;;;;;;;;1026890;28;959;-41
2022/02/08 04:16:21;;;;;;;;;;;;;;;;;;1026966;28;799;-42
2022/02/08 04:16:53;;;;;;;;;;;;;;;;;;1027022;28;1101;-42
2022/02/08 04:18:17;;;;;;;;;;;;;;;;;;1027121;28;1047;-42
2022/02/08 04:19:30;;;;;;;;;;;;;;;;;;1026795;28;1046;-42
2022/02/08 04:31:29;;;;;;;;;;;;;;;;;;1026903;28;999;-42
2022/02/08 04:33:31;;;;;;;;;;;;;;;;;;1026876;28;690;-42
2022/02/08 04:35:36;;;;;;;;;;;;;;;;;;1026944;28;832;-41
2022/02/08 04:37:57;;;;;;;;;;;;;;;;;;1016442;28;1034;-41